sensor_id;sensor_type;location;lat;lon;timestamp;temperature;humidity
14008;DHT22;61651;45.508;12.232;2023-05-10T00:00:05;20.20;99.90
14008;DHT22;61651;45.508;12.232;2023-05-10T00:03:07;20.20;99.90
14008;DHT22;61651;45.508;12.232;2023-05-10T00:06:09;20.20;99.90
14008;DHT22;61651;45.508;12.232;2023-05-10T00:09:11;20.20;99.90
14008;DHT22;61651;45.508;12.232;2023-05-10T00:12:15;20.20;99.90
14008;DHT22;61651;45.508;12.232;2023-05-10T00:15:17;20.10;99.90
14008;DHT22;61651;45.508;12.232;2023-05-10T00:18:19;20.10;99.90
14008;DHT22;61651;45.508;12.232;2023-05-10T00:21:21;20.10;99.90
14008;DHT22;61651;45.508;12.232;2023-05-10T00:24:23;20.10;99.90
14008;DHT22;61651;45.508;12.232;2023-05-10T00:27:27;20.10;99.90
14008;DHT22;61651;45.508;12.232;2023-05-10T00:30:29;20.00;99.90
14008;DHT22;61651;45.508;12.232;2023-05-10T00:33:31;20.00;99.90
14008;DHT22;61651;45.508;12.232;2023-05-10T00:36:33;20.10;99.90
14008;DHT22;61651;45.508;12.232;2023-05-10T00:39:35;20.10;99.90
14008;DHT22;61651;45.508;12.232;2023-05-10T00:42:38;20.10;99.90
14008;DHT22;61651;45.508;12.232;2023-05-10T00:45:41;20.00;99.90
14008;DHT22;61651;45.508;12.232;2023-05-10T00:48:43;20.00;99.90
14008;DHT22;61651;45.508;12.232;2023-05-10T00:51:46;20.00;99.90
14008;DHT22;61651;45.508;12.232;2023-05-10T00:54:48;20.00;99.90
14008;DHT22;61651;45.508;12.232;2023-05-10T00:57:52;20.00;99.90
14008;DHT22;61651;45.508;12.232;2023-05-10T01:00:54;20.10;99.90
14008;DHT22;61651;45.508;12.232;2023-05-10T01:03:58;20.10;99.90
14008;DHT22;61651;45.508;12.232;2023-05-10T01:07:00;20.00;99.90
14008;DHT22;61651;45.508;12.232;2023-05-10T01:10:02;19.90;99.90
14008;DHT22;61651;45.508;12.232;2023-05-10T01:13:06;19.90;99.90
14008;DHT22;61651;45.508;12.232;2023-05-10T01:16:08;19.90;99.90
14008;DHT22;61651;45.508;12.232;2023-05-10T01:19:15;19.90;99.90
14008;DHT22;61651;45.508;12.232;2023-05-10T01:22:39;19.90;99.90
14008;DHT22;61651;45.508;12.232;2023-05-10T01:29:47;19.90;99.90
14008;DHT22;61651;45.508;12.232;2023-05-10T01:32:58;19.90;99.90
14008;DHT22;61651;45.508;12.232;2023-05-10T01:36:06;19.80;99.90
14008;DHT22;61651;45.508;12.232;2023-05-10T01:39:23;19.80;99.90
14008;DHT22;61651;45.508;12.232;2023-05-10T01:42:28;19.70;99.90
14008;DHT22;61651;45.508;12.232;2023-05-10T01:45:38;19.80;99.90
14008;DHT22;61651;45.508;12.232;2023-05-10T01:48:47;19.80;99.90
14008;DHT22;61651;45.508;12.232;2023-05-10T01:51:53;19.70;99.90
14008;DHT22;61651;45.508;12.232;2023-05-10T01:55:00;19.70;99.90
14008;DHT22;61651;45.508;12.232;2023-05-10T01:58:06;19.70;99.90
14008;DHT22;61651;45.508;12.232;2023-05-10T02:01:10;19.70;99.90
14008;DHT22;61651;45.508;12.232;2023-05-10T02:04:16;19.60;99.90
14008;DHT22;61651;45.508;12.232;2023-05-10T02:07:19;19.60;99.90
14008;DHT22;61651;45.508;12.232;2023-05-10T02:10:21;19.60;99.90
14008;DHT22;61651;45.508;12.232;2023-05-10T02:13:24;19.60;99.90
14008;DHT22;61651;45.508;12.232;2023-05-10T02:16:28;19.60;99.90
14008;DHT22;61651;45.508;12.232;2023-05-10T02:19:34;19.60;99.90
14008;DHT22;61651;45.508;12.232;2023-05-10T02:22:37;19.50;99.90
14008;DHT22;61651;45.508;12.232;2023-05-10T02:25:40;19.50;99.90
14008;DHT22;61651;45.508;12.232;2023-05-10T02:28:43;19.50;99.90
14008;DHT22;61651;45.508;12.232;2023-05-10T02:31:45;19.40;99.90
14008;DHT22;61651;45.508;12.232;2023-05-10T02:34:49;19.30;99.90
14008;DHT22;61651;45.508;12.232;2023-05-10T02:37:53;19.30;99.90
14008;DHT22;61651;45.508;12.232;2023-05-10T02:40:56;19.30;99.90
14008;DHT22;61651;45.508;12.232;2023-05-10T02:44:01;19.30;99.90
14008;DHT22;61651;45.508;12.232;2023-05-10T02:47:04;19.20;99.90
14008;DHT22;61651;45.508;12.232;2023-05-10T02:50:08;19.20;99.90
14008;DHT22;61651;45.508;12.232;2023-05-10T02:53:14;19.20;99.90
14008;DHT22;61651;45.508;12.232;2023-05-10T02:56:23;19.20;99.90
14008;DHT22;61651;45.508;12.232;2023-05-10T02:59:26;19.20;99.90
14008;DHT22;61651;45.508;12.232;2023-05-10T03:02:29;19.20;99.90
14008;DHT22;61651;45.508;12.232;2023-05-10T03:05:32;19.20;99.90
14008;DHT22;61651;45.508;12.232;2023-05-10T03:08:34;19.20;99.90
14008;DHT22;61651;45.508;12.232;2023-05-10T03:11:47;19.20;99.90
14008;DHT22;61651;45.508;12.232;2023-05-10T03:14:56;19.20;99.90
14008;DHT22;61651;45.508;12.232;2023-05-10T03:18:04;19.10;99.90
14008;DHT22;61651;45.508;12.232;2023-05-10T03:21:11;19.10;99.90
14008;DHT22;61651;45.508;12.232;2023-05-10T05:08:48;18.60;99.90
14008;DHT22;61651;45.508;12.232;2023-05-10T05:11:51;18.60;99.90
14008;DHT22;61651;45.508;12.232;2023-05-10T05:14:53;18.60;99.90
14008;DHT22;61651;45.508;12.232;2023-05-10T05:17:55;18.60;99.90
14008;DHT22;61651;45.508;12.232;2023-05-10T05:20:57;18.70;99.90
14008;DHT22;61651;45.508;12.232;2023-05-10T05:24:00;18.70;99.90
14008;DHT22;61651;45.508;12.232;2023-05-10T05:27:02;18.80;99.90
14008;DHT22;61651;45.508;12.232;2023-05-10T05:30:05;18.90;99.90
14008;DHT22;61651;45.508;12.232;2023-05-10T05:33:08;18.90;99.90
14008;DHT22;61651;45.508;12.232;2023-05-10T05:36:10;18.90;99.90
14008;DHT22;61651;45.508;12.232;2023-05-10T05:39:13;18.70;99.90
14008;DHT22;61651;45.508;12.232;2023-05-10T05:42:15;18.70;99.90
14008;DHT22;61651;45.508;12.232;2023-05-10T05:45:19;18.70;99.90
14008;DHT22;61651;45.508;12.232;2023-05-10T05:48:21;18.70;99.90
14008;DHT22;61651;45.508;12.232;2023-05-10T05:51:23;18.80;99.90
14008;DHT22;61651;45.508;12.232;2023-05-10T05:54:27;18.80;99.90
14008;DHT22;61651;45.508;12.232;2023-05-10T05:57:29;18.90;99.90
14008;DHT22;61651;45.508;12.232;2023-05-10T06:00:31;18.80;99.90
14008;DHT22;61651;45.508;12.232;2023-05-10T06:03:32;18.80;99.90
14008;DHT22;61651;45.508;12.232;2023-05-10T06:06:34;18.80;99.90
14008;DHT22;61651;45.508;12.232;2023-05-10T06:09:38;18.80;99.90
14008;DHT22;61651;45.508;12.232;2023-05-10T06:12:40;18.80;99.90
14008;DHT22;61651;45.508;12.232;2023-05-10T06:15:42;18.80;99.90
14008;DHT22;61651;45.508;12.232;2023-05-10T06:18:44;18.80;99.90
14008;DHT22;61651;45.508;12.232;2023-05-10T06:21:46;18.80;99.90
14008;DHT22;61651;45.508;12.232;2023-05-10T06:24:49;18.80;99.90
14008;DHT22;61651;45.508;12.232;2023-05-10T06:27:51;18.80;99.90
14008;DHT22;61651;45.508;12.232;2023-05-10T06:30:57;18.70;99.90
14008;DHT22;61651;45.508;12.232;2023-05-10T06:33:59;18.70;99.90
14008;DHT22;61651;45.508;12.232;2023-05-10T06:37:01;18.70;99.90
14008;DHT22;61651;45.508;12.232;2023-05-10T06:40:06;18.70;99.90
14008;DHT22;61651;45.508;12.232;2023-05-10T06:43:10;18.70;99.90
14008;DHT22;61651;45.508;12.232;2023-05-10T06:46:12;18.80;99.90
14008;DHT22;61651;45.508;12.232;2023-05-10T06:49:14;18.80;99.90
14008;DHT22;61651;45.508;12.232;2023-05-10T06:52:16;18.90;99.90
14008;DHT22;61651;45.508;12.232;2023-05-10T06:55:19;18.90;99.90
14008;DHT22;61651;45.508;12.232;2023-05-10T06:58:21;18.90;99.90
14008;DHT22;61651;45.508;12.232;2023-05-10T07:01:23;18.90;99.90
14008;DHT22;61651;45.508;12.232;2023-05-10T07:04:25;18.90;99.90
14008;DHT22;61651;45.508;12.232;2023-05-10T07:07:28;19.00;99.90
14008;DHT22;61651;45.508;12.232;2023-05-10T07:10:32;19.00;99.90
14008;DHT22;61651;45.508;12.232;2023-05-10T07:13:34;19.00;99.90
14008;DHT22;61651;45.508;12.232;2023-05-10T07:16:36;18.90;99.90
14008;DHT22;61651;45.508;12.232;2023-05-10T07:19:38;18.90;99.90
14008;DHT22;61651;45.508;12.232;2023-05-10T07:22:40;18.90;99.90
14008;DHT22;61651;45.508;12.232;2023-05-10T07:25:44;18.90;99.90
14008;DHT22;61651;45.508;12.232;2023-05-10T07:28:47;19.00;99.90
14008;DHT22;61651;45.508;12.232;2023-05-10T07:31:49;19.00;99.90
14008;DHT22;61651;45.508;12.232;2023-05-10T07:34:51;18.90;99.90
14008;DHT22;61651;45.508;12.232;2023-05-10T07:37:53;18.90;99.90
14008;DHT22;61651;45.508;12.232;2023-05-10T07:40:56;18.90;99.90
14008;DHT22;61651;45.508;12.232;2023-05-10T07:43:58;18.90;99.90
14008;DHT22;61651;45.508;12.232;2023-05-10T07:47:00;18.80;99.90
14008;DHT22;61651;45.508;12.232;2023-05-10T07:50:02;18.80;99.90
14008;DHT22;61651;45.508;12.232;2023-05-10T07:53:04;18.80;99.90
14008;DHT22;61651;45.508;12.232;2023-05-10T07:56:22;18.70;99.90
14008;DHT22;61651;45.508;12.232;2023-05-10T07:59:25;18.70;99.90
14008;DHT22;61651;45.508;12.232;2023-05-10T08:02:27;18.70;99.90
14008;DHT22;61651;45.508;12.232;2023-05-10T08:05:29;18.70;99.90
14008;DHT22;61651;45.508;12.232;2023-05-10T08:08:31;18.60;99.90
14008;DHT22;61651;45.508;12.232;2023-05-10T08:11:35;18.60;99.90
14008;DHT22;61651;45.508;12.232;2023-05-10T08:14:37;18.60;99.90
14008;DHT22;61651;45.508;12.232;2023-05-10T08:17:39;18.50;99.90
14008;DHT22;61651;45.508;12.232;2023-05-10T08:20:41;18.40;99.90
14008;DHT22;61651;45.508;12.232;2023-05-10T08:23:42;18.50;99.90
14008;DHT22;61651;45.508;12.232;2023-05-10T08:26:47;18.40;99.90
14008;DHT22;61651;45.508;12.232;2023-05-10T08:29:49;18.40;99.90
14008;DHT22;61651;45.508;12.232;2023-05-10T08:32:51;18.40;99.90
14008;DHT22;61651;45.508;12.232;2023-05-10T08:35:53;18.40;99.90
14008;DHT22;61651;45.508;12.232;2023-05-10T08:38:56;18.30;99.90
14008;DHT22;61651;45.508;12.232;2023-05-10T08:42:02;18.30;99.90
14008;DHT22;61651;45.508;12.232;2023-05-10T08:45:05;18.40;99.90
14008;DHT22;61651;45.508;12.232;2023-05-10T08:48:09;18.40;99.90
14008;DHT22;61651;45.508;12.232;2023-05-10T08:51:14;18.40;99.90
14008;DHT22;61651;45.508;12.232;2023-05-10T08:54:17;18.30;99.90
14008;DHT22;61651;45.508;12.232;2023-05-10T08:57:20;18.30;99.90
14008;DHT22;61651;45.508;12.232;2023-05-10T09:00:22;18.30;99.90
14008;DHT22;61651;45.508;12.232;2023-05-10T09:03:25;18.20;99.90
14008;DHT22;61651;45.508;12.232;2023-05-10T09:06:27;18.20;99.90
14008;DHT22;61651;45.508;12.232;2023-05-10T09:09:29;18.20;99.90
14008;DHT22;61651;45.508;12.232;2023-05-10T09:12:33;18.20;99.90
14008;DHT22;61651;45.508;12.232;2023-05-10T09:15:36;18.30;99.90
14008;DHT22;61651;45.508;12.232;2023-05-10T09:18:38;18.30;99.90
14008;DHT22;61651;45.508;12.232;2023-05-10T09:21:40;18.40;99.90
14008;DHT22;61651;45.508;12.232;2023-05-10T09:24:43;18.40;99.90
14008;DHT22;61651;45.508;12.232;2023-05-10T09:27:48;18.30;99.90
14008;DHT22;61651;45.508;12.232;2023-05-10T09:30:53;18.30;99.90
14008;DHT22;61651;45.508;12.232;2023-05-10T09:33:56;18.40;99.90
14008;DHT22;61651;45.508;12.232;2023-05-10T09:36:59;18.40;99.90
14008;DHT22;61651;45.508;12.232;2023-05-10T09:40:05;18.40;99.90
14008;DHT22;61651;45.508;12.232;2023-05-10T09:43:09;18.50;99.90
14008;DHT22;61651;45.508;12.232;2023-05-10T09:46:12;18.30;99.90
14008;DHT22;61651;45.508;12.232;2023-05-10T09:49:14;18.30;99.90
14008;DHT22;61651;45.508;12.232;2023-05-10T09:52:16;18.30;99.90
14008;DHT22;61651;45.508;12.232;2023-05-10T09:55:19;18.40;99.90
14008;DHT22;61651;45.508;12.232;2023-05-10T09:58:23;18.50;99.90
14008;DHT22;61651;45.508;12.232;2023-05-10T10:01:26;18.40;99.90
14008;DHT22;61651;45.508;12.232;2023-05-10T10:04:28;18.40;99.90
14008;DHT22;61651;45.508;12.232;2023-05-10T10:07:30;18.50;99.90
14008;DHT22;61651;45.508;12.232;2023-05-10T10:10:33;18.50;99.90
14008;DHT22;61651;45.508;12.232;2023-05-10T10:13:37;18.50;99.90
14008;DHT22;61651;45.508;12.232;2023-05-10T10:16:39;18.50;99.90
14008;DHT22;61651;45.508;12.232;2023-05-10T10:19:41;18.50;99.90
14008;DHT22;61651;45.508;12.232;2023-05-10T10:22:44;18.40;99.90
14008;DHT22;61651;45.508;12.232;2023-05-10T10:25:46;18.40;99.90
14008;DHT22;61651;45.508;12.232;2023-05-10T10:28:57;18.40;99.90
14008;DHT22;61651;45.508;12.232;2023-05-10T10:32:09;18.30;99.90
14008;DHT22;61651;45.508;12.232;2023-05-10T10:35:12;18.30;99.90
14008;DHT22;61651;45.508;12.232;2023-05-10T10:38:14;18.30;99.90
14008;DHT22;61651;45.508;12.232;2023-05-10T10:41:28;18.30;99.90
14008;DHT22;61651;45.508;12.232;2023-05-10T10:44:36;18.40;99.90
14008;DHT22;61651;45.508;12.232;2023-05-10T10:47:39;18.40;99.90
14008;DHT22;61651;45.508;12.232;2023-05-10T10:50:44;18.30;99.90
14008;DHT22;61651;45.508;12.232;2023-05-10T10:53:48;18.40;99.90
14008;DHT22;61651;45.508;12.232;2023-05-10T10:57:10;18.40;99.90
14008;DHT22;61651;45.508;12.232;2023-05-10T11:00:26;18.60;99.90
14008;DHT22;61651;45.508;12.232;2023-05-10T11:03:28;18.60;99.90
14008;DHT22;61651;45.508;12.232;2023-05-10T11:06:31;18.60;99.90
14008;DHT22;61651;45.508;12.232;2023-05-10T11:09:39;18.60;99.90
14008;DHT22;61651;45.508;12.232;2023-05-10T11:12:51;18.40;99.90
14008;DHT22;61651;45.508;12.232;2023-05-10T11:15:55;18.30;99.90
14008;DHT22;61651;45.508;12.232;2023-05-10T11:19:01;18.30;99.90
14008;DHT22;61651;45.508;12.232;2023-05-10T11:22:13;18.40;99.90
14008;DHT22;61651;45.508;12.232;2023-05-10T11:25:15;18.40;99.90
14008;DHT22;61651;45.508;12.232;2023-05-10T11:28:18;18.40;99.90
14008;DHT22;61651;45.508;12.232;2023-05-10T11:31:23;18.40;99.90
14008;DHT22;61651;45.508;12.232;2023-05-10T11:34:28;18.40;99.90
14008;DHT22;61651;45.508;12.232;2023-05-10T11:37:31;18.40;99.90
14008;DHT22;61651;45.508;12.232;2023-05-10T11:40:35;18.50;99.90
14008;DHT22;61651;45.508;12.232;2023-05-10T11:43:38;18.40;99.90
14008;DHT22;61651;45.508;12.232;2023-05-10T11:46:41;18.40;99.90
14008;DHT22;61651;45.508;12.232;2023-05-10T11:49:44;18.50;99.90
14008;DHT22;61651;45.508;12.232;2023-05-10T11:52:50;18.50;99.90
14008;DHT22;61651;45.508;12.232;2023-05-10T11:55:52;18.40;99.90
14008;DHT22;61651;45.508;12.232;2023-05-10T11:58:55;18.50;99.90
14008;DHT22;61651;45.508;12.232;2023-05-10T12:01:59;18.50;99.90
14008;DHT22;61651;45.508;12.232;2023-05-10T12:05:02;18.40;99.90
14008;DHT22;61651;45.508;12.232;2023-05-10T12:08:12;18.40;99.90
14008;DHT22;61651;45.508;12.232;2023-05-10T12:11:14;18.40;99.90
14008;DHT22;61651;45.508;12.232;2023-05-10T12:14:17;18.40;99.90
14008;DHT22;61651;45.508;12.232;2023-05-10T12:17:27;18.30;99.90
14008;DHT22;61651;45.508;12.232;2023-05-10T12:20:29;18.20;99.90
14008;DHT22;61651;45.508;12.232;2023-05-10T12:23:31;18.20;99.90
14008;DHT22;61651;45.508;12.232;2023-05-10T12:26:35;18.20;99.90
14008;DHT22;61651;45.508;12.232;2023-05-10T12:29:41;18.20;99.90
14008;DHT22;61651;45.508;12.232;2023-05-10T12:32:46;18.30;99.90
14008;DHT22;61651;45.508;12.232;2023-05-10T12:35:49;18.30;99.90
14008;DHT22;61651;45.508;12.232;2023-05-10T12:39:02;18.30;99.90
14008;DHT22;61651;45.508;12.232;2023-05-10T12:42:04;18.20;99.90
14008;DHT22;61651;45.508;12.232;2023-05-10T12:45:08;18.20;99.90
14008;DHT22;61651;45.508;12.232;2023-05-10T12:48:11;18.20;99.90
14008;DHT22;61651;45.508;12.232;2023-05-10T12:51:13;18.30;99.90
14008;DHT22;61651;45.508;12.232;2023-05-10T12:54:17;18.20;99.90
14008;DHT22;61651;45.508;12.232;2023-05-10T12:57:20;18.20;99.90
14008;DHT22;61651;45.508;12.232;2023-05-10T13:00:22;18.20;99.90
14008;DHT22;61651;45.508;12.232;2023-05-10T13:03:26;18.30;99.90
14008;DHT22;61651;45.508;12.232;2023-05-10T13:06:28;18.30;99.90
14008;DHT22;61651;45.508;12.232;2023-05-10T13:09:31;18.30;99.90
14008;DHT22;61651;45.508;12.232;2023-05-10T13:12:33;18.40;99.90
14008;DHT22;61651;45.508;12.232;2023-05-10T13:15:35;18.40;99.90
14008;DHT22;61651;45.508;12.232;2023-05-10T13:18:39;18.30;99.90
14008;DHT22;61651;45.508;12.232;2023-05-10T13:21:40;18.30;99.90
14008;DHT22;61651;45.508;12.232;2023-05-10T13:24:42;18.30;99.90
14008;DHT22;61651;45.508;12.232;2023-05-10T13:27:44;18.30;99.90
14008;DHT22;61651;45.508;12.232;2023-05-10T13:30:46;18.30;99.90
14008;DHT22;61651;45.508;12.232;2023-05-10T13:33:50;18.10;99.90
14008;DHT22;61651;45.508;12.232;2023-05-10T13:36:52;18.20;99.90
14008;DHT22;61651;45.508;12.232;2023-05-10T13:39:56;18.10;99.90
14008;DHT22;61651;45.508;12.232;2023-05-10T13:42:58;18.10;99.90
14008;DHT22;61651;45.508;12.232;2023-05-10T13:46:00;18.10;99.90
14008;DHT22;61651;45.508;12.232;2023-05-10T13:49:04;18.10;99.90
14008;DHT22;61651;45.508;12.232;2023-05-10T13:52:06;18.20;99.90
14008;DHT22;61651;45.508;12.232;2023-05-10T13:55:10;18.10;99.90
14008;DHT22;61651;45.508;12.232;2023-05-10T13:58:13;18.10;99.90
14008;DHT22;61651;45.508;12.232;2023-05-10T14:01:15;18.10;99.90
14008;DHT22;61651;45.508;12.232;2023-05-10T14:04:19;18.00;99.90
14008;DHT22;61651;45.508;12.232;2023-05-10T14:07:21;18.00;99.90
14008;DHT22;61651;45.508;12.232;2023-05-10T14:10:23;18.00;99.90
14008;DHT22;61651;45.508;12.232;2023-05-10T14:13:25;17.90;99.90
14008;DHT22;61651;45.508;12.232;2023-05-10T14:16:28;17.90;99.90
14008;DHT22;61651;45.508;12.232;2023-05-10T14:19:31;17.90;99.90
14008;DHT22;61651;45.508;12.232;2023-05-10T14:22:34;17.90;99.90
14008;DHT22;61651;45.508;12.232;2023-05-10T14:25:36;18.00;99.90
14008;DHT22;61651;45.508;12.232;2023-05-10T14:28:39;17.90;99.90
14008;DHT22;61651;45.508;12.232;2023-05-10T14:31:41;17.90;99.90
14008;DHT22;61651;45.508;12.232;2023-05-10T14:34:44;17.90;99.90
14008;DHT22;61651;45.508;12.232;2023-05-10T14:37:46;17.80;99.90
14008;DHT22;61651;45.508;12.232;2023-05-10T14:40:48;17.80;99.90
14008;DHT22;61651;45.508;12.232;2023-05-10T14:43:50;17.80;99.90
14008;DHT22;61651;45.508;12.232;2023-05-10T14:46:52;17.80;99.90
14008;DHT22;61651;45.508;12.232;2023-05-10T14:49:57;17.70;99.90
14008;DHT22;61651;45.508;12.232;2023-05-10T14:52:59;17.70;99.90
14008;DHT22;61651;45.508;12.232;2023-05-10T14:56:01;17.60;99.90
14008;DHT22;61651;45.508;12.232;2023-05-10T14:59:03;17.60;99.90
14008;DHT22;61651;45.508;12.232;2023-05-10T15:02:05;17.50;99.90
14008;DHT22;61651;45.508;12.232;2023-05-10T15:05:10;17.50;99.90
14008;DHT22;61651;45.508;12.232;2023-05-10T15:08:12;17.50;99.90
14008;DHT22;61651;45.508;12.232;2023-05-10T15:11:14;17.50;99.90
14008;DHT22;61651;45.508;12.232;2023-05-10T15:14:16;17.50;99.90
14008;DHT22;61651;45.508;12.232;2023-05-10T15:17:18;17.40;99.90
14008;DHT22;61651;45.508;12.232;2023-05-10T15:20:21;17.40;99.90
14008;DHT22;61651;45.508;12.232;2023-05-10T15:23:23;17.30;99.90
14008;DHT22;61651;45.508;12.232;2023-05-10T15:26:25;17.30;99.90
14008;DHT22;61651;45.508;12.232;2023-05-10T15:29:27;17.40;99.90
14008;DHT22;61651;45.508;12.232;2023-05-10T15:32:30;17.40;99.90
14008;DHT22;61651;45.508;12.232;2023-05-10T15:35:33;17.50;99.90
14008;DHT22;61651;45.508;12.232;2023-05-10T15:38:36;17.50;99.90
14008;DHT22;61651;45.508;12.232;2023-05-10T15:41:38;17.50;99.90
14008;DHT22;61651;45.508;12.232;2023-05-10T15:44:40;17.50;99.90
14008;DHT22;61651;45.508;12.232;2023-05-10T15:47:44;17.40;99.90
14008;DHT22;61651;45.508;12.232;2023-05-10T15:50:48;17.40;99.90
14008;DHT22;61651;45.508;12.232;2023-05-10T15:53:50;17.40;99.90
14008;DHT22;61651;45.508;12.232;2023-05-10T15:56:52;17.30;99.90
14008;DHT22;61651;45.508;12.232;2023-05-10T15:59:54;17.40;99.90
14008;DHT22;61651;45.508;12.232;2023-05-10T16:02:57;17.50;99.90
14008;DHT22;61651;45.508;12.232;2023-05-10T16:06:01;17.40;99.90
14008;DHT22;61651;45.508;12.232;2023-05-10T16:09:03;17.40;99.90
14008;DHT22;61651;45.508;12.232;2023-05-10T16:12:05;17.40;99.90
14008;DHT22;61651;45.508;12.232;2023-05-10T16:15:08;17.50;99.90
14008;DHT22;61651;45.508;12.232;2023-05-10T16:18:10;17.50;99.90
14008;DHT22;61651;45.508;12.232;2023-05-10T16:21:13;17.40;99.90
14008;DHT22;61651;45.508;12.232;2023-05-10T16:24:16;17.50;99.90
14008;DHT22;61651;45.508;12.232;2023-05-10T16:27:18;17.50;99.90
14008;DHT22;61651;45.508;12.232;2023-05-10T16:30:20;17.50;99.90
14008;DHT22;61651;45.508;12.232;2023-05-10T16:33:23;17.50;99.90
14008;DHT22;61651;45.508;12.232;2023-05-10T16:36:27;17.50;99.90
14008;DHT22;61651;45.508;12.232;2023-05-10T16:39:29;17.50;99.90
14008;DHT22;61651;45.508;12.232;2023-05-10T16:42:31;17.40;99.90
14008;DHT22;61651;45.508;12.232;2023-05-10T16:45:33;17.40;99.90
14008;DHT22;61651;45.508;12.232;2023-05-10T16:48:35;17.40;99.90
14008;DHT22;61651;45.508;12.232;2023-05-10T16:51:39;17.40;99.90
14008;DHT22;61651;45.508;12.232;2023-05-10T16:54:41;17.30;99.90
14008;DHT22;61651;45.508;12.232;2023-05-10T16:57:43;17.20;99.90
14008;DHT22;61651;45.508;12.232;2023-05-10T17:00:45;17.20;99.90
14008;DHT22;61651;45.508;12.232;2023-05-10T17:03:48;17.20;99.90
14008;DHT22;61651;45.508;12.232;2023-05-10T17:06:51;17.00;99.90
14008;DHT22;61651;45.508;12.232;2023-05-10T17:09:53;17.10;99.90
14008;DHT22;61651;45.508;12.232;2023-05-10T17:12:55;17.10;99.90
14008;DHT22;61651;45.508;12.232;2023-05-10T17:15:57;17.10;99.90
14008;DHT22;61651;45.508;12.232;2023-05-10T17:18:59;17.20;99.90
14008;DHT22;61651;45.508;12.232;2023-05-10T17:22:06;17.10;99.90
14008;DHT22;61651;45.508;12.232;2023-05-10T17:25:09;17.10;99.90
14008;DHT22;61651;45.508;12.232;2023-05-10T17:28:11;17.00;99.90
14008;DHT22;61651;45.508;12.232;2023-05-10T17:31:13;17.00;99.90
14008;DHT22;61651;45.508;12.232;2023-05-10T17:34:16;16.90;99.90
14008;DHT22;61651;45.508;12.232;2023-05-10T17:37:22;16.90;99.90
14008;DHT22;61651;45.508;12.232;2023-05-10T17:40:25;17.00;99.90
14008;DHT22;61651;45.508;12.232;2023-05-10T17:43:27;16.90;99.90
14008;DHT22;61651;45.508;12.232;2023-05-10T17:46:29;16.90;99.90
14008;DHT22;61651;45.508;12.232;2023-05-10T17:49:32;16.90;99.90
14008;DHT22;61651;45.508;12.232;2023-05-10T17:52:35;16.90;99.90
14008;DHT22;61651;45.508;12.232;2023-05-10T17:55:39;16.80;99.90
14008;DHT22;61651;45.508;12.232;2023-05-10T17:58:41;16.90;99.90
14008;DHT22;61651;45.508;12.232;2023-05-10T18:01:43;16.80;99.90
14008;DHT22;61651;45.508;12.232;2023-05-10T18:04:45;16.80;99.90
14008;DHT22;61651;45.508;12.232;2023-05-10T18:07:49;16.80;99.90
14008;DHT22;61651;45.508;12.232;2023-05-10T18:10:51;16.80;99.90
14008;DHT22;61651;45.508;12.232;2023-05-10T18:13:53;16.90;99.90
14008;DHT22;61651;45.508;12.232;2023-05-10T18:16:55;16.90;99.90
14008;DHT22;61651;45.508;12.232;2023-05-10T18:19:58;16.90;99.90
14008;DHT22;61651;45.508;12.232;2023-05-10T18:23:01;16.90;99.90
14008;DHT22;61651;45.508;12.232;2023-05-10T18:26:03;16.90;99.90
14008;DHT22;61651;45.508;12.232;2023-05-10T18:29:05;16.80;99.90
14008;DHT22;61651;45.508;12.232;2023-05-10T18:32:07;16.80;99.90
14008;DHT22;61651;45.508;12.232;2023-05-10T18:35:10;16.70;99.90
14008;DHT22;61651;45.508;12.232;2023-05-10T18:38:13;16.70;99.90
14008;DHT22;61651;45.508;12.232;2023-05-10T18:41:15;16.70;99.90
14008;DHT22;61651;45.508;12.232;2023-05-10T18:44:18;16.80;99.90
14008;DHT22;61651;45.508;12.232;2023-05-10T18:47:21;16.70;99.90
14008;DHT22;61651;45.508;12.232;2023-05-10T18:50:23;16.70;99.90
14008;DHT22;61651;45.508;12.232;2023-05-10T18:53:26;16.60;99.90
14008;DHT22;61651;45.508;12.232;2023-05-10T18:56:28;16.50;99.90
14008;DHT22;61651;45.508;12.232;2023-05-10T18:59:31;16.60;99.90
14008;DHT22;61651;45.508;12.232;2023-05-10T19:02:32;16.60;99.90
14008;DHT22;61651;45.508;12.232;2023-05-10T19:05:35;16.60;99.90
14008;DHT22;61651;45.508;12.232;2023-05-10T19:08:39;16.60;99.90
14008;DHT22;61651;45.508;12.232;2023-05-10T19:11:42;16.60;99.90
14008;DHT22;61651;45.508;12.232;2023-05-10T19:14:44;16.50;99.90
14008;DHT22;61651;45.508;12.232;2023-05-10T19:17:47;16.50;99.90
14008;DHT22;61651;45.508;12.232;2023-05-10T19:20:53;16.50;99.90
14008;DHT22;61651;45.508;12.232;2023-05-10T19:24:04;16.50;99.90
14008;DHT22;61651;45.508;12.232;2023-05-10T19:27:07;16.50;99.90
14008;DHT22;61651;45.508;12.232;2023-05-10T19:30:11;16.40;99.90
14008;DHT22;61651;45.508;12.232;2023-05-10T19:33:15;16.40;99.90
14008;DHT22;61651;45.508;12.232;2023-05-10T19:36:17;16.50;99.90
14008;DHT22;61651;45.508;12.232;2023-05-10T19:39:22;16.60;99.90
14008;DHT22;61651;45.508;12.232;2023-05-10T19:42:24;16.50;99.90
14008;DHT22;61651;45.508;12.232;2023-05-10T19:45:27;16.50;99.90
14008;DHT22;61651;45.508;12.232;2023-05-10T19:48:29;16.60;99.90
14008;DHT22;61651;45.508;12.232;2023-05-10T19:51:31;16.60;99.90
14008;DHT22;61651;45.508;12.232;2023-05-10T19:54:35;16.60;99.90
14008;DHT22;61651;45.508;12.232;2023-05-10T19:57:37;16.60;99.90
14008;DHT22;61651;45.508;12.232;2023-05-10T20:00:40;16.60;99.90
14008;DHT22;61651;45.508;12.232;2023-05-10T20:03:42;16.50;99.90
14008;DHT22;61651;45.508;12.232;2023-05-10T20:06:45;16.50;99.90
14008;DHT22;61651;45.508;12.232;2023-05-10T20:09:49;16.60;99.90
14008;DHT22;61651;45.508;12.232;2023-05-10T20:12:52;16.60;99.90
14008;DHT22;61651;45.508;12.232;2023-05-10T20:15:58;16.60;99.90
14008;DHT22;61651;45.508;12.232;2023-05-10T20:19:02;16.50;99.90
14008;DHT22;61651;45.508;12.232;2023-05-10T20:22:05;16.50;99.90
14008;DHT22;61651;45.508;12.232;2023-05-10T20:25:11;16.50;99.90
14008;DHT22;61651;45.508;12.232;2023-05-10T20:28:13;16.50;99.90
14008;DHT22;61651;45.508;12.232;2023-05-10T20:31:15;16.50;99.90
14008;DHT22;61651;45.508;12.232;2023-05-10T20:34:17;16.50;99.90
14008;DHT22;61651;45.508;12.232;2023-05-10T20:37:20;16.50;99.90
14008;DHT22;61651;45.508;12.232;2023-05-10T20:40:28;16.50;99.90
14008;DHT22;61651;45.508;12.232;2023-05-10T20:43:31;16.40;99.90
14008;DHT22;61651;45.508;12.232;2023-05-10T20:46:33;16.40;99.90